Time;durP1;ratioP1;P1;durP2;ratioP2;P2;SDS_P1;SDS_P2;PMS_P1;PMS_P2;Temp;Humidity;BMP_temperature;BMP_pressure;BME280_temperature;BME280_humidity;BME280_pressure;Samples;Min_cycle;Max_cycle;Signal;HPM_P1;HPM_P2
2022/03/13 00:00:46;;;;;;;3.03;2.10;;;;;;;;;;4982164;28;20512;-72
2022/03/13 00:03:13;;;;;;;3.88;2.13;;;;;;;;;;5005262;28;20643;-72
2022/03/13 00:05:41;;;;;;;4.35;2.20;;;;;;;;;;5004886;28;20049;-72
2022/03/13 00:08:29;;;;;;;5.15;2.25;;;;;;;;;;5007215;28;20160;-72
2022/03/13 00:10:59;;;;;;;2.95;1.85;;;;;;;;;;5000563;28;20050;-72
2022/03/13 00:13:32;;;;;;;3.80;2.05;;;;;;;;;;5004819;28;20073;-72
2022/03/13 00:16:03;;;;;;;7.93;2.38;;;;;;;;;;5014477;28;20072;-72
2022/03/13 00:18:32;;;;;;;3.15;2.03;;;;;;;;;;5004022;28;20056;-72
2022/03/13 00:20:59;;;;;;;4.65;2.75;;;;;;;;;;5001581;28;20535;-72
2022/03/13 00:23:25;;;;;;;6.60;3.03;;;;;;;;;;4998329;28;20493;-72
2022/03/13 00:25:52;;;;;;;4.00;3.28;;;;;;;;;;5010060;28;20049;-72
2022/03/13 00:28:18;;;;;;;5.38;3.15;;;;;;;;;;5000521;28;20053;-73
2022/03/13 00:30:44;;;;;;;6.05;3.88;;;;;;;;;;4996692;28;20451;-72
2022/03/13 00:33:10;;;;;;;5.70;2.85;;;;;;;;;;5006731;28;20043;-72
2022/03/13 00:35:38;;;;;;;5.38;2.80;;;;;;;;;;5004401;28;20046;-72
2022/03/13 00:38:04;;;;;;;4.78;2.30;;;;;;;;;;5008690;28;20501;-72
2022/03/13 00:40:30;;;;;;;5.60;2.53;;;;;;;;;;5004412;28;20049;-72
2022/03/13 00:42:57;;;;;;;3.05;2.17;;;;;;;;;;5014460;28;20068;-72
2022/03/13 00:45:23;;;;;;;4.15;2.15;;;;;;;;;;5004166;28;20042;-72
2022/03/13 00:47:49;;;;;;;3.17;1.80;;;;;;;;;;5014265;28;20041;-72
2022/03/13 00:50:15;;;;;;;4.32;1.80;;;;;;;;;;5011768;28;20124;-72
2022/03/13 00:52:42;;;;;;;3.75;1.50;;;;;;;;;;5002482;28;20129;-72
2022/03/13 00:55:08;;;;;;;2.88;1.90;;;;;;;;;;5015416;28;20042;-73
2022/03/13 00:57:34;;;;;;;3.00;1.92;;;;;;;;;;5008655;28;20071;-72
2022/03/13 01:00:00;;;;;;;3.88;1.70;;;;;;;;;;4995913;28;20050;-73
2022/03/13 01:02:26;;;;;;;1.98;1.52;;;;;;;;;;4995522;28;20062;-72
2022/03/13 01:04:54;;;;;;;4.28;2.08;;;;;;;;;;4995638;28;20065;-73
2022/03/13 01:07:21;;;;;;;4.97;2.47;;;;;;;;;;4995578;28;20133;-72
2022/03/13 01:09:47;;;;;;;5.30;3.28;;;;;;;;;;5002366;28;20057;-72
2022/03/13 01:12:13;;;;;;;4.85;3.55;;;;;;;;;;5006511;28;20496;-72
2022/03/13 01:14:39;;;;;;;6.13;3.70;;;;;;;;;;4996426;28;20706;-72
2022/03/13 01:17:07;;;;;;;7.65;4.10;;;;;;;;;;5004204;28;20038;-72
2022/03/13 01:19:33;;;;;;;9.65;4.88;;;;;;;;;;5001665;28;20050;-72
2022/03/13 01:21:59;;;;;;;10.82;6.43;;;;;;;;;;5007302;28;20050;-72
2022/03/13 01:24:25;;;;;;;12.05;6.50;;;;;;;;;;4996403;28;20042;-72
2022/03/13 01:26:57;;;;;;;11.30;5.60;;;;;;;;;;4985032;28;20054;-72
2022/03/13 01:29:23;;;;;;;6.75;4.55;;;;;;;;;;5012618;28;20058;-72
2022/03/13 01:31:50;;;;;;;11.27;3.88;;;;;;;;;;5007223;28;20547;-72
2022/03/13 01:34:41;;;;;;;14.70;5.25;;;;;;;;;;5004437;28;20042;-72
2022/03/13 01:37:09;;;;;;;5.30;2.75;;;;;;;;;;5001289;28;20042;-72
2022/03/13 01:39:35;;;;;;;6.40;2.53;;;;;;;;;;4997066;28;20042;-72
2022/03/13 01:42:02;;;;;;;4.35;2.60;;;;;;;;;;5003607;28;20053;-72
2022/03/13 01:44:28;;;;;;;7.13;3.85;;;;;;;;;;5002461;28;20046;-72
2022/03/13 01:46:55;;;;;;;4.32;2.90;;;;;;;;;;5002660;28;20523;-72
2022/03/13 01:49:21;;;;;;;4.78;3.60;;;;;;;;;;5006115;28;20054;-72
2022/03/13 01:51:47;;;;;;;7.10;4.03;;;;;;;;;;4996169;28;20072;-72
2022/03/13 01:54:14;;;;;;;8.93;4.15;;;;;;;;;;4995618;28;20042;-73
2022/03/13 01:56:40;;;;;;;7.00;4.00;;;;;;;;;;4997768;28;20050;-72
2022/03/13 01:59:08;;;;;;;5.45;3.17;;;;;;;;;;4996611;28;20125;-72
2022/03/13 02:01:35;;;;;;;4.97;3.45;;;;;;;;;;5010027;28;20068;-72
2022/03/13 02:04:01;;;;;;;7.60;3.15;;;;;;;;;;4995419;28;20109;-72
2022/03/13 02:06:27;;;;;;;7.55;4.22;;;;;;;;;;5000485;28;20041;-72
2022/03/13 02:08:54;;;;;;;6.28;2.95;;;;;;;;;;5004832;28;20038;-72
2022/03/13 02:11:22;;;;;;;6.65;3.75;;;;;;;;;;5005013;28;20061;-72
2022/03/13 02:13:53;;;;;;;6.82;3.25;;;;;;;;;;5000620;28;20486;-72
2022/03/13 02:16:20;;;;;;;6.55;3.45;;;;;;;;;;5003907;28;20073;-72
2022/03/13 02:18:51;;;;;;;7.82;3.47;;;;;;;;;;5016173;28;20042;-73
2022/03/13 02:21:17;;;;;;;7.47;3.53;;;;;;;;;;5014791;28;20034;-72
2022/03/13 02:23:43;;;;;;;5.43;3.47;;;;;;;;;;5002136;28;20050;-73
2022/03/13 02:26:10;;;;;;;8.90;3.10;;;;;;;;;;4999646;28;20516;-72
2022/03/13 02:28:38;;;;;;;6.90;3.22;;;;;;;;;;4999538;28;20046;-73
2022/03/13 02:31:05;;;;;;;5.60;3.40;;;;;;;;;;5010737;28;20049;-72
2022/03/13 02:33:32;;;;;;;4.43;2.17;;;;;;;;;;5002609;28;20504;-72
2022/03/13 02:36:03;;;;;;;3.15;2.35;;;;;;;;;;5008838;28;20046;-72
2022/03/13 02:38:30;;;;;;;3.15;2.25;;;;;;;;;;4999881;28;20049;-72
2022/03/13 02:40:57;;;;;;;7.22;2.42;;;;;;;;;;5012604;28;20042;-73
2022/03/13 02:43:24;;;;;;;4.72;2.20;;;;;;;;;;5010366;28;20100;-72
2022/03/13 02:45:52;;;;;;;3.97;2.08;;;;;;;;;;5007083;28;20107;-72
2022/03/13 02:48:19;;;;;;;3.90;2.20;;;;;;;;;;5001237;28;20038;-72
2022/03/13 02:50:45;;;;;;;3.83;2.28;;;;;;;;;;5016401;28;20071;-72
2022/03/13 02:53:13;;;;;;;6.25;2.42;;;;;;;;;;5006314;28;20057;-72
2022/03/13 02:55:39;;;;;;;5.03;2.85;;;;;;;;;;5004276;28;20052;-72
2022/03/13 02:58:06;;;;;;;5.07;2.50;;;;;;;;;;5013403;28;20081;-72
2022/03/13 03:00:43;;;;;;;4.00;2.25;;;;;;;;;;4999013;28;20104;-72
2022/03/13 03:03:09;;;;;;;5.13;2.60;;;;;;;;;;5009544;28;20062;-72
2022/03/13 03:05:35;;;;;;;4.57;2.47;;;;;;;;;;5003076;28;20038;-72
2022/03/13 03:08:01;;;;;;;4.10;2.50;;;;;;;;;;5016174;28;20054;-72
2022/03/13 03:10:27;;;;;;;6.80;2.50;;;;;;;;;;5002160;28;20535;-72
2022/03/13 03:12:53;;;;;;;8.35;4.28;;;;;;;;;;5016107;28;20500;-72
2022/03/13 03:15:20;;;;;;;15.93;5.93;;;;;;;;;;4999072;28;20049;-72
2022/03/13 03:17:46;;;;;;;14.98;7.15;;;;;;;;;;5005091;28;20034;-72
2022/03/13 03:20:12;;;;;;;14.32;6.50;;;;;;;;;;5011109;28;20046;-73
2022/03/13 03:22:38;;;;;;;12.32;6.32;;;;;;;;;;5015731;28;20050;-72
2022/03/13 03:25:05;;;;;;;19.38;6.85;;;;;;;;;;5001656;28;20068;-72
2022/03/13 03:27:31;;;;;;;15.35;6.40;;;;;;;;;;5011866;28;20096;-72
2022/03/13 03:30:00;;;;;;;9.07;4.13;;;;;;;;;;5006713;28;20046;-72
2022/03/13 03:32:26;;;;;;;7.35;3.70;;;;;;;;;;5008475;28;20046;-72
2022/03/13 03:34:52;;;;;;;8.45;3.65;;;;;;;;;;5008567;28;20042;-72
2022/03/13 03:37:18;;;;;;;8.73;3.83;;;;;;;;;;5012068;28;20046;-72
2022/03/13 03:39:45;;;;;;;5.65;3.25;;;;;;;;;;4999602;28;20034;-72
2022/03/13 03:42:11;;;;;;;9.23;4.07;;;;;;;;;;5014770;28;20049;-73
2022/03/13 03:44:37;;;;;;;11.20;4.00;;;;;;;;;;5003785;28;20045;-72
2022/03/13 03:47:03;;;;;;;9.43;4.40;;;;;;;;;;5010912;28;20045;-72
2022/03/13 03:49:30;;;;;;;11.10;4.10;;;;;;;;;;5001110;28;20511;-72
2022/03/13 03:51:56;;;;;;;10.48;4.60;;;;;;;;;;5017878;28;20048;-72
2022/03/13 03:54:22;;;;;;;6.30;3.30;;;;;;;;;;5011409;28;20444;-73
2022/03/13 03:56:48;;;;;;;6.15;3.15;;;;;;;;;;4998367;28;20046;-72
2022/03/13 03:59:15;;;;;;;3.55;2.30;;;;;;;;;;5006865;28;20125;-72
2022/03/13 04:01:42;;;;;;;4.60;2.80;;;;;;;;;;5002378;28;20078;-72
2022/03/13 04:04:09;;;;;;;2.53;1.90;;;;;;;;;;5013196;28;20042;-72
2022/03/13 04:06:39;;;;;;;4.15;2.53;;;;;;;;;;5008798;28;20049;-72
2022/03/13 04:09:06;;;;;;;2.72;1.75;;;;;;;;;;5008100;28;20400;-72
2022/03/13 04:11:32;;;;;;;4.38;2.40;;;;;;;;;;4997961;28;20038;-72
2022/03/13 04:13:58;;;;;;;2.65;1.95;;;;;;;;;;5009061;28;20046;-72
2022/03/13 04:16:24;;;;;;;1.85;1.63;;;;;;;;;;5000446;28;20042;-72
2022/03/13 04:18:51;;;;;;;2.47;1.85;;;;;;;;;;5005127;28;20500;-72
2022/03/13 04:21:17;;;;;;;4.97;1.58;;;;;;;;;;5002233;28;20042;-72
2022/03/13 04:23:44;;;;;;;2.95;1.88;;;;;;;;;;5010827;28;20088;-72
2022/03/13 04:26:10;;;;;;;3.55;1.98;;;;;;;;;;5014678;28;20137;-72
2022/03/13 04:28:36;;;;;;;3.10;2.00;;;;;;;;;;5007036;28;20038;-72
2022/03/13 04:31:05;;;;;;;5.68;1.88;;;;;;;;;;5008118;28;20054;-72
2022/03/13 04:33:35;;;;;;;7.53;3.15;;;;;;;;;;4998048;28;20035;-72
2022/03/13 04:36:12;;;;;;;7.00;3.20;;;;;;;;;;5007196;28;20046;-72
2022/03/13 04:38:38;;;;;;;3.20;2.60;;;;;;;;;;5016399;28;20045;-72
2022/03/13 04:41:04;;;;;;;2.42;2.00;;;;;;;;;;5002275;28;20054;-72
2022/03/13 04:43:31;;;;;;;4.55;2.50;;;;;;;;;;5004966;28;20046;-72
2022/03/13 04:45:57;;;;;;;6.55;2.58;;;;;;;;;;5000709;28;20042;-72
2022/03/13 04:48:23;;;;;;;6.65;2.60;;;;;;;;;;5007763;28;20135;-72
2022/03/13 04:50:49;;;;;;;4.07;2.15;;;;;;;;;;4996457;28;20061;-72
2022/03/13 04:53:16;;;;;;;4.53;2.33;;;;;;;;;;5008035;28;20040;-72
2022/03/13 04:55:42;;;;;;;8.10;5.28;;;;;;;;;;4996471;28;20097;-72
2022/03/13 04:58:09;;;;;;;8.68;2.70;;;;;;;;;;5006059;28;20037;-72
2022/03/13 05:00:38;;;;;;;3.30;2.80;;;;;;;;;;5015673;28;20050;-72
2022/03/13 05:03:05;;;;;;;4.85;2.58;;;;;;;;;;5008058;28;20528;-73
2022/03/13 05:05:34;;;;;;;7.40;2.47;;;;;;;;;;4997374;28;20042;-72
2022/03/13 05:08:00;;;;;;;7.28;2.60;;;;;;;;;;4998383;28;20124;-73
2022/03/13 05:10:36;;;;;;;6.40;2.83;;;;;;;;;;5010782;28;20045;-72
2022/03/13 05:13:03;;;;;;;5.78;2.92;;;;;;;;;;5002404;28;20042;-73
2022/03/13 05:15:29;;;;;;;8.05;3.05;;;;;;;;;;5010252;28;20065;-73
2022/03/13 05:17:55;;;;;;;7.38;3.10;;;;;;;;;;5002589;28;20045;-73
2022/03/13 05:20:21;;;;;;;5.43;3.53;;;;;;;;;;5003213;28;20055;-73
2022/03/13 05:22:48;;;;;;;6.38;3.30;;;;;;;;;;5004037;28;20076;-72
2022/03/13 05:25:14;;;;;;;8.32;3.63;;;;;;;;;;4999756;28;20070;-72
2022/03/13 05:27:41;;;;;;;13.52;4.47;;;;;;;;;;5009825;28;20125;-72
2022/03/13 05:30:08;;;;;;;11.55;4.70;;;;;;;;;;5000269;28;20092;-72
2022/03/13 05:32:37;;;;;;;16.63;5.63;;;;;;;;;;5003654;28;20485;-72
2022/03/13 05:35:04;;;;;;;13.25;5.97;;;;;;;;;;5001274;28;20033;-72
2022/03/13 05:37:30;;;;;;;11.13;4.85;;;;;;;;;;5002370;28;20046;-72
2022/03/13 05:39:56;;;;;;;15.73;5.35;;;;;;;;;;5010013;28;20129;-72
2022/03/13 05:42:24;;;;;;;12.75;5.38;;;;;;;;;;5002047;28;20054;-72
2022/03/13 05:44:53;;;;;;;11.68;6.22;;;;;;;;;;5013017;28;20036;-72
2022/03/13 05:47:19;;;;;;;19.85;7.78;;;;;;;;;;4994318;28;20042;-72
2022/03/13 05:49:46;;;;;;;21.77;8.30;;;;;;;;;;5010669;28;20045;-72
2022/03/13 05:52:15;;;;;;;14.30;6.43;;;;;;;;;;5007176;28;20562;-72
2022/03/13 05:54:42;;;;;;;16.63;6.65;;;;;;;;;;5010702;28;20034;-72
2022/03/13 05:57:10;;;;;;;23.67;9.73;;;;;;;;;;5000298;28;20493;-72
2022/03/13 05:59:37;;;;;;;35.63;12.07;;;;;;;;;;4996113;28;20034;-72
2022/03/13 06:02:07;;;;;;;36.45;12.18;;;;;;;;;;5007725;28;20065;-72
2022/03/13 06:04:37;;;;;;;31.20;12.33;;;;;;;;;;5000561;28;20050;-72
2022/03/13 06:07:06;;;;;;;34.07;12.80;;;;;;;;;;5004800;28;20077;-72
2022/03/13 06:09:32;;;;;;;27.08;11.70;;;;;;;;;;5004533;28;20050;-72
2022/03/13 06:15:05;;;;;;;41.03;14.23;;;;;;;;;;5219495;23;20053;-72
2022/03/13 06:17:31;;;;;;;52.70;17.45;;;;;;;;;;5364518;23;20057;-72
2022/03/13 06:22:44;;;;;;;53.67;19.23;;;;;;;;;;5317856;23;20444;-72
2022/03/13 06:25:11;;;;;;;61.55;20.00;;;;;;;;;;5001730;28;20055;-72
2022/03/13 06:27:38;;;;;;;65.93;20.08;;;;;;;;;;5012718;28;20061;-72
2022/03/13 06:30:10;;;;;;;62.42;20.23;;;;;;;;;;5012937;28;20042;-72
2022/03/13 06:32:36;;;;;;;57.65;18.10;;;;;;;;;;5013007;28;20041;-72
2022/03/13 06:35:03;;;;;;;47.85;17.40;;;;;;;;;;5012876;28;20034;-73
2022/03/13 06:37:29;;;;;;;47.78;17.75;;;;;;;;;;5011741;28;20041;-72
2022/03/13 06:39:55;;;;;;;65.80;20.00;;;;;;;;;;5004684;28;20042;-72
2022/03/13 06:42:22;;;;;;;57.75;18.25;;;;;;;;;;5010207;28;20042;-72
2022/03/13 06:44:48;;;;;;;52.80;17.60;;;;;;;;;;5012746;28;20084;-72
2022/03/13 06:47:14;;;;;;;55.38;18.77;;;;;;;;;;5010289;28;20049;-72
2022/03/13 06:49:41;;;;;;;53.92;18.77;;;;;;;;;;5003760;28;20104;-72
2022/03/13 06:52:08;;;;;;;49.70;18.52;;;;;;;;;;5012628;28;20038;-72
2022/03/13 06:54:34;;;;;;;59.17;18.90;;;;;;;;;;5010931;28;20539;-73
2022/03/13 06:57:00;;;;;;;52.88;17.27;;;;;;;;;;5011925;28;20120;-73
2022/03/13 06:59:26;;;;;;;50.17;16.17;;;;;;;;;;5015220;28;20100;-73
2022/03/13 07:01:53;;;;;;;42.38;14.73;;;;;;;;;;5015408;28;20042;-73
2022/03/13 07:04:19;;;;;;;37.90;13.10;;;;;;;;;;5015998;28;20038;-72
2022/03/13 07:06:45;;;;;;;38.30;12.93;;;;;;;;;;5015469;28;20116;-73
2022/03/13 07:09:11;;;;;;;28.27;12.07;;;;;;;;;;5014380;28;20091;-72
2022/03/13 07:11:43;;;;;;;37.20;12.82;;;;;;;;;;5008114;28;20113;-72
2022/03/13 07:14:11;;;;;;;40.72;13.55;;;;;;;;;;5007220;28;20042;-72
2022/03/13 07:16:37;;;;;;;38.60;14.32;;;;;;;;;;5015689;28;20034;-72
2022/03/13 07:19:04;;;;;;;49.70;15.27;;;;;;;;;;5015350;28;20053;-73
2022/03/13 07:21:30;;;;;;;54.33;17.50;;;;;;;;;;5014832;28;20128;-73
2022/03/13 07:23:56;;;;;;;55.38;16.60;;;;;;;;;;5013737;28;20069;-73
2022/03/13 07:26:22;;;;;;;45.35;15.55;;;;;;;;;;5013091;28;20504;-73
2022/03/13 07:28:48;;;;;;;47.50;16.17;;;;;;;;;;5015150;28;20172;-72
2022/03/13 07:31:15;;;;;;;40.97;15.10;;;;;;;;;;5011501;28;20056;-73
2022/03/13 07:33:41;;;;;;;44.53;14.10;;;;;;;;;;5015102;28;20036;-73
2022/03/13 07:36:08;;;;;;;27.95;10.63;;;;;;;;;;5013386;28;20041;-73
2022/03/13 07:38:34;;;;;;;29.55;10.57;;;;;;;;;;5014584;28;20037;-72
2022/03/13 07:41:00;;;;;;;18.52;7.35;;;;;;;;;;5017177;28;20042;-73
2022/03/13 07:43:26;;;;;;;21.75;6.85;;;;;;;;;;5017076;28;20480;-73
2022/03/13 07:45:52;;;;;;;15.23;5.85;;;;;;;;;;5016381;28;20575;-73
2022/03/13 07:48:18;;;;;;;12.27;4.95;;;;;;;;;;5015843;28;20125;-73
2022/03/13 07:50:44;;;;;;;11.07;3.92;;;;;;;;;;5001312;28;20081;-73
2022/03/13 07:53:11;;;;;;;5.82;3.00;;;;;;;;;;5009230;28;20041;-73
2022/03/13 07:55:37;;;;;;;6.32;2.53;;;;;;;;;;5015099;28;20044;-73
2022/03/13 07:58:03;;;;;;;7.57;2.53;;;;;;;;;;5005873;28;20041;-72
2022/03/13 08:00:29;;;;;;;7.38;3.00;;;;;;;;;;5015926;28;20077;-73
2022/03/13 08:02:56;;;;;;;12.32;4.05;;;;;;;;;;5016849;28;20111;-73
2022/03/13 08:05:22;;;;;;;11.52;5.13;;;;;;;;;;5012918;28;20065;-73
2022/03/13 08:07:49;;;;;;;14.82;5.35;;;;;;;;;;5009637;28;20046;-73
2022/03/13 08:10:20;;;;;;;16.45;5.70;;;;;;;;;;5015516;28;20042;-76
2022/03/13 08:12:47;;;;;;;17.75;5.75;;;;;;;;;;5017052;28;20045;-75
2022/03/13 08:15:13;;;;;;;14.63;5.55;;;;;;;;;;5010638;28;20120;-74
2022/03/13 08:17:39;;;;;;;15.27;6.95;;;;;;;;;;5000960;28;20057;-74
2022/03/13 08:20:06;;;;;;;12.32;5.82;;;;;;;;;;5011210;28;20049;-74
2022/03/13 08:22:32;;;;;;;13.07;5.68;;;;;;;;;;5004853;28;20065;-74
2022/03/13 08:24:58;;;;;;;13.55;5.10;;;;;;;;;;5004419;28;20042;-75
2022/03/13 08:27:25;;;;;;;13.95;5.60;;;;;;;;;;5005005;28;20065;-75
2022/03/13 08:29:52;;;;;;;12.40;5.00;;;;;;;;;;5002958;28;20062;-75
2022/03/13 08:32:18;;;;;;;13.10;4.07;;;;;;;;;;5001907;28;20563;-74
2022/03/13 08:34:45;;;;;;;10.98;4.57;;;;;;;;;;5012417;28;20551;-74
2022/03/13 08:37:12;;;;;;;11.75;4.82;;;;;;;;;;5002097;28;20034;-74
2022/03/13 08:39:39;;;;;;;8.88;4.00;;;;;;;;;;5006234;28;20125;-74
2022/03/13 08:42:06;;;;;;;8.45;3.63;;;;;;;;;;5008435;28;20092;-74
2022/03/13 08:44:32;;;;;;;6.55;3.35;;;;;;;;;;5013391;28;20037;-74
2022/03/13 08:46:59;;;;;;;9.15;3.72;;;;;;;;;;5009496;28;20042;-73
2022/03/13 08:49:26;;;;;;;14.18;4.05;;;;;;;;;;5010745;28;20141;-74
2022/03/13 08:51:52;;;;;;;9.90;4.40;;;;;;;;;;5008825;28;20037;-74
2022/03/13 08:54:19;;;;;;;10.95;3.72;;;;;;;;;;5012754;28;20040;-73
2022/03/13 08:56:46;;;;;;;12.63;4.30;;;;;;;;;;5007343;28;20038;-73
2022/03/13 08:59:15;;;;;;;12.77;4.28;;;;;;;;;;4999720;28;20042;-74
2022/03/13 09:01:41;;;;;;;8.35;2.80;;;;;;;;;;4999457;28;20045;-74
2022/03/13 09:04:07;;;;;;;11.60;4.10;;;;;;;;;;5001752;28;20050;-73
2022/03/13 09:06:33;;;;;;;8.18;3.03;;;;;;;;;;5010797;28;20037;-73
2022/03/13 09:09:00;;;;;;;6.38;2.22;;;;;;;;;;5001803;28;20050;-73
2022/03/13 09:11:26;;;;;;;5.63;2.30;;;;;;;;;;5001652;28;20520;-73
2022/03/13 09:13:52;;;;;;;10.30;2.22;;;;;;;;;;5001840;28;20106;-73
2022/03/13 09:16:19;;;;;;;7.75;2.17;;;;;;;;;;5002133;28;20073;-74
2022/03/13 09:18:45;;;;;;;4.30;1.80;;;;;;;;;;5001999;28;20088;-73
2022/03/13 09:21:11;;;;;;;6.93;2.40;;;;;;;;;;5001588;28;20074;-72
2022/03/13 09:23:38;;;;;;;9.65;1.40;;;;;;;;;;5011203;28;20037;-73
2022/03/13 09:26:04;;;;;;;8.52;2.72;;;;;;;;;;5007220;28;20211;-75
2022/03/13 09:28:30;;;;;;;4.05;1.98;;;;;;;;;;5009622;28;20403;-73
2022/03/13 09:30:56;;;;;;;4.68;2.20;;;;;;;;;;5004020;28;20140;-72
2022/03/13 09:33:23;;;;;;;2.70;1.52;;;;;;;;;;5001069;28;20050;-71
2022/03/13 09:35:51;;;;;;;5.38;1.95;;;;;;;;;;5003847;28;20045;-73
2022/03/13 09:38:17;;;;;;;4.20;1.70;;;;;;;;;;5005783;28;20056;-74
2022/03/13 09:40:43;;;;;;;3.03;1.52;;;;;;;;;;5004762;28;20034;-73
2022/03/13 09:43:10;;;;;;;6.35;3.35;;;;;;;;;;5000288;28;20058;-73
2022/03/13 09:45:36;;;;;;;3.38;1.48;;;;;;;;;;5001254;28;20060;-76
2022/03/13 09:48:03;;;;;;;4.72;2.38;;;;;;;;;;4981367;28;20041;-71
2022/03/13 09:50:30;;;;;;;3.78;1.77;;;;;;;;;;4998983;28;20401;-75
2022/03/13 09:52:56;;;;;;;3.45;2.03;;;;;;;;;;4995098;28;20100;-75
2022/03/13 09:55:22;;;;;;;4.25;1.80;;;;;;;;;;4981512;28;20037;-77
2022/03/13 09:57:51;;;;;;;6.05;2.15;;;;;;;;;;5000886;28;20039;-75
2022/03/13 10:00:20;;;;;;;3.97;1.73;;;;;;;;;;5001020;28;20218;-75
2022/03/13 10:02:46;;;;;;;3.75;3.00;;;;;;;;;;4979821;28;20049;-74
2022/03/13 10:05:17;;;;;;;4.85;3.17;;;;;;;;;;5005278;28;20569;-71
2022/03/13 10:08:00;;;;;;;3.28;1.80;;;;;;;;;;5002958;28;20491;-73
2022/03/13 10:10:30;;;;;;;4.90;4.32;;;;;;;;;;5001307;28;20050;-74
2022/03/13 10:12:56;;;;;;;3.22;1.88;;;;;;;;;;4998725;28;20049;-75
2022/03/13 10:15:25;;;;;;;4.65;1.70;;;;;;;;;;4997425;28;20563;-77
2022/03/13 10:17:51;;;;;;;3.78;1.30;;;;;;;;;;5001058;28;20037;-73
2022/03/13 10:20:28;;;;;;;3.30;1.88;;;;;;;;;;4983767;28;20137;-73
2022/03/13 10:23:00;;;;;;;4.35;2.10;;;;;;;;;;4999618;28;20053;-73
2022/03/13 10:25:30;;;;;;;5.15;4.63;;;;;;;;;;4996260;28;20129;-74
2022/03/13 10:28:15;;;;;;;7.57;1.80;;;;;;;;;;5001078;28;20571;-74
2022/03/13 10:30:41;;;;;;;4.00;1.60;;;;;;;;;;5002192;28;20493;-72
2022/03/13 10:33:08;;;;;;;4.13;1.83;;;;;;;;;;4993050;28;20053;-74
2022/03/13 10:35:37;;;;;;;2.38;1.20;;;;;;;;;;5007740;28;20048;-73
2022/03/13 10:38:16;;;;;;;2.30;0.80;;;;;;;;;;4990644;28;20460;-75
2022/03/13 10:40:42;;;;;;;1.63;1.00;;;;;;;;;;5013262;28;20056;-73
2022/03/13 10:43:09;;;;;;;3.20;1.15;;;;;;;;;;5014353;28;20049;-74
2022/03/13 10:45:39;;;;;;;3.03;1.10;;;;;;;;;;5009606;28;20101;-74
2022/03/13 10:48:16;;;;;;;4.53;1.35;;;;;;;;;;5000506;28;20040;-73
2022/03/13 10:50:45;;;;;;;5.43;2.97;;;;;;;;;;4992573;28;20057;-72
2022/03/13 10:53:12;;;;;;;10.20;3.58;;;;;;;;;;5002139;28;20046;-72
2022/03/13 10:55:39;;;;;;;4.15;1.90;;;;;;;;;;5004221;28;20034;-71
2022/03/13 10:58:05;;;;;;;9.02;1.58;;;;;;;;;;5009131;28;20070;-72
2022/03/13 11:00:31;;;;;;;2.60;1.45;;;;;;;;;;4999729;28;20046;-71
2022/03/13 11:03:11;;;;;;;1.40;1.17;;;;;;;;;;5000642;28;20053;-71
2022/03/13 11:05:41;;;;;;;11.07;10.10;;;;;;;;;;5010678;28;20041;-73
2022/03/13 11:08:08;;;;;;;6.27;3.33;;;;;;;;;;5001641;28;20034;-72
2022/03/13 11:10:38;;;;;;;4.50;1.20;;;;;;;;;;4997250;28;20356;-72
2022/03/13 11:13:07;;;;;;;6.57;4.63;;;;;;;;;;5004694;28;20117;-72
2022/03/13 11:15:35;;;;;;;4.43;3.05;;;;;;;;;;5000226;28;20048;-72
2022/03/13 11:18:02;;;;;;;3.45;1.55;;;;;;;;;;5008929;28;20522;-72
2022/03/13 11:20:29;;;;;;;8.82;7.10;;;;;;;;;;4997484;28;20046;-71
2022/03/13 11:22:55;;;;;;;5.28;2.75;;;;;;;;;;4982208;28;20109;-72
2022/03/13 11:25:23;;;;;;;2.83;2.35;;;;;;;;;;4997849;28;20042;-71
2022/03/13 11:27:52;;;;;;;11.38;7.60;;;;;;;;;;4981458;28;20057;-71
2022/03/13 11:30:30;;;;;;;5.00;2.28;;;;;;;;;;5004015;28;20531;-71
2022/03/13 11:32:57;;;;;;;6.50;2.92;;;;;;;;;;5000959;28;20112;-72
2022/03/13 11:35:27;;;;;;;29.95;15.52;;;;;;;;;;5002878;28;20050;-72
2022/03/13 11:37:53;;;;;;;19.05;2.92;;;;;;;;;;5001648;28;20069;-72
2022/03/13 11:40:30;;;;;;;38.90;10.80;;;;;;;;;;5005219;28;20054;-72
2022/03/13 11:43:05;;;;;;;0.20;0.20;;;;;;;;;;5005881;28;20038;-73
2022/03/13 11:45:34;;;;;;;0.10;0.10;;;;;;;;;;5002969;28;20041;-72
2022/03/13 11:48:19;;;;;;;0.00;0.00;;;;;;;;;;5002486;28;20144;-73
2022/03/13 11:50:47;;;;;;;0.35;0.35;;;;;;;;;;4999716;28;20065;-73
2022/03/13 11:53:44;;;;;;;0.15;0.15;;;;;;;;;;5007201;28;20042;-72
2022/03/13 11:56:11;;;;;;;0.30;0.30;;;;;;;;;;4991030;28;20046;-73
2022/03/13 11:58:42;;;;;;;0.10;0.10;;;;;;;;;;5004309;28;20052;-72
2022/03/13 12:01:15;;;;;;;0.00;0.00;;;;;;;;;;5008939;28;20038;-72
2022/03/13 12:04:00;;;;;;;0.15;0.15;;;;;;;;;;5005450;28;20096;-71
2022/03/13 12:06:46;;;;;;;0.00;0.00;;;;;;;;;;5001691;28;20049;-71
2022/03/13 12:09:13;;;;;;;0.00;0.00;;;;;;;;;;5002231;28;20081;-70
2022/03/13 12:11:45;;;;;;;0.00;0.00;;;;;;;;;;5006563;28;20058;-72
2022/03/13 12:14:12;;;;;;;0.00;0.00;;;;;;;;;;5012288;28;20037;-71
2022/03/13 12:16:41;;;;;;;0.10;0.10;;;;;;;;;;5010810;28;20037;-72
2022/03/13 12:19:10;;;;;;;0.00;0.00;;;;;;;;;;4995878;28;20386;-71
2022/03/13 12:21:37;;;;;;;0.00;0.00;;;;;;;;;;5004029;28;20054;-70
2022/03/13 12:24:15;;;;;;;0.00;0.00;;;;;;;;;;5004047;28;20030;-71
2022/03/13 12:26:47;;;;;;;0.00;0.00;;;;;;;;;;5009782;28;20472;-71
2022/03/13 12:29:15;;;;;;;0.00;0.00;;;;;;;;;;5010557;28;20038;-72
2022/03/13 12:31:42;;;;;;;0.00;0.00;;;;;;;;;;5010133;28;20104;-72
2022/03/13 12:34:08;;;;;;;0.00;0.00;;;;;;;;;;5011796;28;20095;-72
2022/03/13 12:36:36;;;;;;;0.00;0.00;;;;;;;;;;5004404;28;20038;-72
2022/03/13 12:39:02;;;;;;;0.00;0.00;;;;;;;;;;5010723;28;20042;-71
2022/03/13 12:41:29;;;;;;;0.10;0.10;;;;;;;;;;5008417;28;20049;-73
2022/03/13 12:43:58;;;;;;;0.00;0.00;;;;;;;;;;4987181;28;20041;-73
2022/03/13 12:46:27;;;;;;;0.00;0.00;;;;;;;;;;5010539;28;20061;-73
2022/03/13 12:48:58;;;;;;;0.00;0.00;;;;;;;;;;5000315;28;20120;-73
2022/03/13 12:51:38;;;;;;;0.00;0.00;;;;;;;;;;4981820;28;20065;-74
2022/03/13 12:54:08;;;;;;;0.10;0.10;;;;;;;;;;5004534;28;20505;-73
2022/03/13 12:56:58;;;;;;;0.13;0.13;;;;;;;;;;5002758;28;20129;-74
2022/03/13 12:59:34;;;;;;;0.10;0.10;;;;;;;;;;4990383;28;20539;-73
2022/03/13 13:02:04;;;;;;;0.00;0.00;;;7.80;99.90;;;;;;5002708;28;20293;-73
2022/03/13 13:04:31;;;;;;;0.10;0.10;;;8.40;99.90;;;;;;5005014;28;20125;-73
2022/03/13 13:06:57;;;;;;;0.00;0.00;;;8.40;99.90;;;;;;5001866;28;20054;-74
2022/03/13 13:09:33;;;;;;;0.10;0.10;;;8.40;99.90;;;;;;4991575;28;20038;-74
2022/03/13 13:12:00;;;;;;;0.10;0.10;;;8.00;99.90;;;;;;5009318;28;20042;-74
2022/03/13 13:14:28;;;;;;;0.00;0.00;;;8.00;99.90;;;;;;4987319;28;20765;-75
2022/03/13 13:16:58;;;;;;;0.00;0.00;;;8.00;99.90;;;;;;4998978;28;20041;-75
2022/03/13 13:19:45;;;;;;;0.13;0.13;;;8.10;99.90;;;;;;4994773;28;20046;-74
2022/03/13 13:22:11;;;;;;;0.00;0.00;;;8.10;99.90;;;;;;4979074;28;20120;-75
2022/03/13 13:24:49;;;;;;;0.10;0.10;;;8.10;99.90;;;;;;4989468;28;20030;-75
2022/03/13 13:27:34;;;;;;;0.00;0.00;;;8.20;99.90;;;;;;4998156;28;20050;-74
2022/03/13 13:30:21;;;;;;;0.10;0.10;;;8.10;99.90;;;;;;5011509;28;20050;-73
2022/03/13 13:33:10;;;;;;;0.00;0.00;;;8.20;99.90;;;;;;4995131;28;20046;-75
2022/03/13 13:35:49;;;;;;;0.00;0.00;;;8.20;99.90;;;;;;5000402;28;20038;-75
2022/03/13 13:38:18;;;;;;;0.10;0.10;;;;;;;;;;5009701;28;20538;-74
2022/03/13 13:40:49;;;;;;;0.10;0.10;;;;;;;;;;5009933;28;20050;-75
2022/03/13 13:43:28;;;;;;;0.00;0.00;;;;;;;;;;5010808;28;20046;-75
2022/03/13 13:46:02;;;;;;;0.30;0.30;;;;;;;;;;4994269;28;20046;-74
2022/03/13 13:48:29;;;;;;;0.30;0.30;;;;;;;;;;5009021;28;20052;-74
2022/03/13 13:51:14;;;;;;;0.17;0.17;;;;;;;;;;5008721;28;20069;-74
2022/03/13 13:53:48;;;;;;;0.25;0.20;;;;;;;;;;5008345;28;20068;-73
2022/03/13 13:56:15;;;;;;;0.00;0.00;;;;;;;;;;5005654;28;20134;-74
2022/03/13 13:58:41;;;;;;;0.00;0.00;;;;;;;;;;4977520;28;20089;-74
2022/03/13 14:01:24;;;;;;;0.10;0.10;;;;;;;;;;5012048;28;20053;-73
2022/03/13 14:03:50;;;;;;;0.05;0.05;;;;;;;;;;5010382;28;20073;-73
2022/03/13 14:06:20;;;;;;;0.10;0.10;;;;;;;;;;4988914;28;20080;-74
2022/03/13 14:08:50;;;;;;;0.10;0.10;;;;;;;;;;4993254;28;20038;-74
2022/03/13 14:11:19;;;;;;;0.00;0.00;;;;;;;;;;5006167;28;20069;-74
2022/03/13 14:13:46;;;;;;;0.08;0.08;;;;;;;;;;5007116;28;20092;-74
2022/03/13 14:16:14;;;;;;;0.00;0.00;;;;;;;;;;4988933;28;20108;-74
2022/03/13 14:18:40;;;;;;;0.30;0.30;;;;;;;;;;4992299;28;20057;-74
2022/03/13 14:21:07;;;;;;;0.00;0.00;;;;;;;;;;4999834;28;20067;-75
2022/03/13 14:23:33;;;;;;;0.10;0.10;;;;;;;;;;5006165;28;20038;-75
2022/03/13 14:26:00;;;;;;;0.00;0.00;;;;;;;;;;5007556;28;20054;-74
2022/03/13 14:28:26;;;;;;;0.10;0.10;;;;;;;;;;5006489;28;20631;-74
2022/03/13 14:30:53;;;;;;;0.10;0.10;;;9.60;99.90;;;;;;5007136;28;20069;-74
2022/03/13 14:33:23;;;;;;;0.10;0.10;;;10.20;99.90;;;;;;4994257;28;20131;-74
2022/03/13 14:35:50;;;;;;;0.00;0.00;;;10.30;99.90;;;;;;4997731;28;20053;-74
2022/03/13 14:38:17;;;;;;;0.10;0.10;;;9.90;99.90;;;;;;4998483;28;20042;-74
2022/03/13 14:40:44;;;;;;;0.08;0.08;;;9.70;99.90;;;;;;5001938;28;20030;-74
2022/03/13 14:43:12;;;;;;;0.10;0.10;;;9.80;99.90;;;;;;5003302;28;20065;-75